sensor_id;sensor_type;location;lat;lon;timestamp;P1;durP1;ratioP1;P2;durP2;ratioP2
5217;SDS011;26539;51.064;6.346;2023-10-13T00:02:06;16.83;;;11.27;;
5217;SDS011;26539;51.064;6.346;2023-10-13T00:04:33;15.40;;;11.03;;
5217;SDS011;26539;51.064;6.346;2023-10-13T00:07:00;16.83;;;10.47;;
5217;SDS011;26539;51.064;6.346;2023-10-13T00:09:27;17.10;;;11.20;;
5217;SDS011;26539;51.064;6.346;2023-10-13T00:12:03;12.27;;;10.30;;
5217;SDS011;26539;51.064;6.346;2023-10-13T00:14:30;13.33;;;11.20;;
5217;SDS011;26539;51.064;6.346;2023-10-13T00:16:59;17.60;;;12.00;;
5217;SDS011;26539;51.064;6.346;2023-10-13T00:19:32;17.47;;;12.17;;
5217;SDS011;26539;51.064;6.346;2023-10-13T00:22:03;17.17;;;12.57;;
5217;SDS011;26539;51.064;6.346;2023-10-13T00:24:36;15.10;;;10.93;;
5217;SDS011;26539;51.064;6.346;2023-10-13T00:27:08;13.60;;;10.80;;
5217;SDS011;26539;51.064;6.346;2023-10-13T00:29:49;11.80;;;10.20;;
5217;SDS011;26539;51.064;6.346;2023-10-13T00:32:15;14.53;;;11.57;;
5217;SDS011;26539;51.064;6.346;2023-10-13T00:34:45;17.23;;;10.70;;
5217;SDS011;26539;51.064;6.346;2023-10-13T00:37:10;15.67;;;10.27;;
5217;SDS011;26539;51.064;6.346;2023-10-13T00:39:52;16.00;;;10.53;;
5217;SDS011;26539;51.064;6.346;2023-10-13T00:42:21;19.93;;;11.50;;
5217;SDS011;26539;51.064;6.346;2023-10-13T00:44:55;23.10;;;11.97;;
5217;SDS011;26539;51.064;6.346;2023-10-13T00:47:21;15.20;;;10.70;;
5217;SDS011;26539;51.064;6.346;2023-10-13T00:50:05;16.70;;;11.37;;
5217;SDS011;26539;51.064;6.346;2023-10-13T00:52:31;15.57;;;10.80;;
5217;SDS011;26539;51.064;6.346;2023-10-13T00:55:00;16.20;;;10.50;;
5217;SDS011;26539;51.064;6.346;2023-10-13T00:57:26;16.17;;;11.20;;
5217;SDS011;26539;51.064;6.346;2023-10-13T00:59:53;16.70;;;12.30;;
5217;SDS011;26539;51.064;6.346;2023-10-13T01:02:20;19.10;;;11.50;;
5217;SDS011;26539;51.064;6.346;2023-10-13T01:05:01;19.23;;;11.07;;
5217;SDS011;26539;51.064;6.346;2023-10-13T01:07:28;17.40;;;11.60;;
5217;SDS011;26539;51.064;6.346;2023-10-13T01:09:53;15.10;;;10.80;;
5217;SDS011;26539;51.064;6.346;2023-10-13T01:12:19;20.33;;;12.80;;
5217;SDS011;26539;51.064;6.346;2023-10-13T01:14:45;16.20;;;10.87;;
5217;SDS011;26539;51.064;6.346;2023-10-13T01:17:11;18.83;;;11.97;;
5217;SDS011;26539;51.064;6.346;2023-10-13T01:19:37;17.23;;;12.07;;
5217;SDS011;26539;51.064;6.346;2023-10-13T01:22:10;17.57;;;12.37;;
5217;SDS011;26539;51.064;6.346;2023-10-13T01:24:36;17.03;;;11.87;;
5217;SDS011;26539;51.064;6.346;2023-10-13T01:27:05;15.30;;;11.37;;
5217;SDS011;26539;51.064;6.346;2023-10-13T01:29:45;17.33;;;11.50;;
5217;SDS011;26539;51.064;6.346;2023-10-13T01:32:23;13.17;;;11.27;;
5217;SDS011;26539;51.064;6.346;2023-10-13T01:34:49;19.13;;;11.90;;
5217;SDS011;26539;51.064;6.346;2023-10-13T01:37:20;14.83;;;10.53;;
5217;SDS011;26539;51.064;6.346;2023-10-13T01:39:45;18.00;;;12.10;;
5217;SDS011;26539;51.064;6.346;2023-10-13T01:42:12;17.13;;;12.67;;
5217;SDS011;26539;51.064;6.346;2023-10-13T01:44:44;15.83;;;12.50;;
5217;SDS011;26539;51.064;6.346;2023-10-13T01:47:10;19.33;;;12.60;;
5217;SDS011;26539;51.064;6.346;2023-10-13T01:49:37;18.27;;;12.10;;
5217;SDS011;26539;51.064;6.346;2023-10-13T01:52:07;18.83;;;13.20;;
5217;SDS011;26539;51.064;6.346;2023-10-13T01:54:36;17.93;;;13.13;;
5217;SDS011;26539;51.064;6.346;2023-10-13T01:57:05;20.87;;;14.90;;
5217;SDS011;26539;51.064;6.346;2023-10-13T01:59:31;33.20;;;17.57;;
5217;SDS011;26539;51.064;6.346;2023-10-13T02:01:57;22.47;;;17.17;;
5217;SDS011;26539;51.064;6.346;2023-10-13T02:04:25;21.13;;;15.60;;
5217;SDS011;26539;51.064;6.346;2023-10-13T02:06:52;26.00;;;15.30;;
5217;SDS011;26539;51.064;6.346;2023-10-13T02:09:17;22.03;;;14.97;;
5217;SDS011;26539;51.064;6.346;2023-10-13T02:11:51;24.83;;;15.67;;
5217;SDS011;26539;51.064;6.346;2023-10-13T02:14:20;20.23;;;16.13;;
5217;SDS011;26539;51.064;6.346;2023-10-13T02:16:50;26.03;;;16.90;;
5217;SDS011;26539;51.064;6.346;2023-10-13T02:19:20;24.30;;;16.00;;
5217;SDS011;26539;51.064;6.346;2023-10-13T02:21:46;26.13;;;17.50;;
5217;SDS011;26539;51.064;6.346;2023-10-13T02:24:23;23.50;;;17.83;;
5217;SDS011;26539;51.064;6.346;2023-10-13T02:26:54;30.10;;;17.80;;
5217;SDS011;26539;51.064;6.346;2023-10-13T02:29:27;26.73;;;19.73;;
5217;SDS011;26539;51.064;6.346;2023-10-13T02:31:53;23.77;;;17.07;;
5217;SDS011;26539;51.064;6.346;2023-10-13T02:34:22;29.67;;;18.57;;
5217;SDS011;26539;51.064;6.346;2023-10-13T02:36:48;22.57;;;16.80;;
5217;SDS011;26539;51.064;6.346;2023-10-13T02:39:17;22.57;;;17.10;;
5217;SDS011;26539;51.064;6.346;2023-10-13T02:41:49;22.33;;;16.33;;
5217;SDS011;26539;51.064;6.346;2023-10-13T02:44:15;27.03;;;16.20;;
5217;SDS011;26539;51.064;6.346;2023-10-13T02:46:51;25.90;;;16.57;;
5217;SDS011;26539;51.064;6.346;2023-10-13T02:49:20;31.43;;;16.13;;
5217;SDS011;26539;51.064;6.346;2023-10-13T02:51:45;20.07;;;15.57;;
5217;SDS011;26539;51.064;6.346;2023-10-13T02:54:11;23.03;;;15.30;;
5217;SDS011;26539;51.064;6.346;2023-10-13T02:56:43;19.93;;;15.47;;
5217;SDS011;26539;51.064;6.346;2023-10-13T02:59:22;25.57;;;15.40;;
5217;SDS011;26539;51.064;6.346;2023-10-13T03:01:59;23.33;;;15.37;;
5217;SDS011;26539;51.064;6.346;2023-10-13T03:04:26;24.73;;;16.03;;
5217;SDS011;26539;51.064;6.346;2023-10-13T03:06:52;21.80;;;14.40;;
5217;SDS011;26539;51.064;6.346;2023-10-13T03:09:17;24.30;;;16.20;;
5217;SDS011;26539;51.064;6.346;2023-10-13T03:11:47;21.50;;;14.87;;
5217;SDS011;26539;51.064;6.346;2023-10-13T03:14:22;25.43;;;15.10;;
5217;SDS011;26539;51.064;6.346;2023-10-13T03:16:51;25.50;;;14.30;;
5217;SDS011;26539;51.064;6.346;2023-10-13T03:19:18;26.40;;;14.40;;
5217;SDS011;26539;51.064;6.346;2023-10-13T03:21:44;18.47;;;13.27;;
5217;SDS011;26539;51.064;6.346;2023-10-13T03:24:19;18.40;;;13.67;;
5217;SDS011;26539;51.064;6.346;2023-10-13T03:26:48;24.40;;;13.50;;
5217;SDS011;26539;51.064;6.346;2023-10-13T03:29:17;20.80;;;13.73;;
5217;SDS011;26539;51.064;6.346;2023-10-13T03:31:46;18.47;;;12.20;;
5217;SDS011;26539;51.064;6.346;2023-10-13T03:34:20;17.60;;;11.43;;
5217;SDS011;26539;51.064;6.346;2023-10-13T03:36:45;23.47;;;12.80;;
5217;SDS011;26539;51.064;6.346;2023-10-13T03:39:22;16.70;;;11.53;;
5217;SDS011;26539;51.064;6.346;2023-10-13T03:41:56;17.73;;;12.47;;
5217;SDS011;26539;51.064;6.346;2023-10-13T03:44:23;20.47;;;12.23;;
5217;SDS011;26539;51.064;6.346;2023-10-13T03:46:48;14.10;;;11.13;;
5217;SDS011;26539;51.064;6.346;2023-10-13T03:49:15;15.60;;;10.73;;
5217;SDS011;26539;51.064;6.346;2023-10-13T03:51:45;16.93;;;11.07;;
5217;SDS011;26539;51.064;6.346;2023-10-13T03:54:13;18.33;;;10.90;;
5217;SDS011;26539;51.064;6.346;2023-10-13T03:56:41;15.73;;;10.77;;
5217;SDS011;26539;51.064;6.346;2023-10-13T03:59:09;14.83;;;11.00;;
5217;SDS011;26539;51.064;6.346;2023-10-13T04:01:43;14.60;;;10.13;;
5217;SDS011;26539;51.064;6.346;2023-10-13T04:04:11;17.07;;;10.40;;
5217;SDS011;26539;51.064;6.346;2023-10-13T04:06:39;18.60;;;10.33;;
5217;SDS011;26539;51.064;6.346;2023-10-13T04:09:18;21.00;;;12.43;;
5217;SDS011;26539;51.064;6.346;2023-10-13T04:11:56;16.60;;;10.53;;
5217;SDS011;26539;51.064;6.346;2023-10-13T04:14:43;19.67;;;11.10;;
5217;SDS011;26539;51.064;6.346;2023-10-13T04:17:28;20.03;;;12.00;;
5217;SDS011;26539;51.064;6.346;2023-10-13T04:19:58;23.00;;;13.07;;
5217;SDS011;26539;51.064;6.346;2023-10-13T04:22:30;15.77;;;11.40;;
5217;SDS011;26539;51.064;6.346;2023-10-13T04:25:13;16.37;;;12.13;;
5217;SDS011;26539;51.064;6.346;2023-10-13T04:27:54;15.77;;;10.43;;
5217;SDS011;26539;51.064;6.346;2023-10-13T04:33:27;18.20;;;11.37;;
5217;SDS011;26539;51.064;6.346;2023-10-13T04:36:15;18.17;;;11.70;;
5217;SDS011;26539;51.064;6.346;2023-10-13T04:38:43;20.47;;;11.30;;
5217;SDS011;26539;51.064;6.346;2023-10-13T04:41:29;24.10;;;11.90;;
5217;SDS011;26539;51.064;6.346;2023-10-13T04:44:06;22.83;;;11.47;;
5217;SDS011;26539;51.064;6.346;2023-10-13T04:47:08;18.23;;;11.80;;
5217;SDS011;26539;51.064;6.346;2023-10-13T04:49:42;19.70;;;12.90;;
5217;SDS011;26539;51.064;6.346;2023-10-13T04:52:11;21.07;;;11.10;;
5217;SDS011;26539;51.064;6.346;2023-10-13T04:54:40;22.13;;;11.83;;
5217;SDS011;26539;51.064;6.346;2023-10-13T04:57:14;16.67;;;11.00;;
5217;SDS011;26539;51.064;6.346;2023-10-13T05:00:00;19.87;;;11.00;;
5217;SDS011;26539;51.064;6.346;2023-10-13T05:02:37;17.13;;;11.77;;
5217;SDS011;26539;51.064;6.346;2023-10-13T05:05:10;18.10;;;11.33;;
5217;SDS011;26539;51.064;6.346;2023-10-13T05:07:40;14.73;;;10.80;;
5217;SDS011;26539;51.064;6.346;2023-10-13T05:10:24;21.17;;;10.50;;
5217;SDS011;26539;51.064;6.346;2023-10-13T05:13:08;18.27;;;10.80;;
5217;SDS011;26539;51.064;6.346;2023-10-13T05:16:12;22.10;;;9.40;;
5217;SDS011;26539;51.064;6.346;2023-10-13T05:18:56;15.23;;;10.37;;
5217;SDS011;26539;51.064;6.346;2023-10-13T05:21:40;16.53;;;9.73;;
5217;SDS011;26539;51.064;6.346;2023-10-13T05:24:24;15.23;;;10.20;;
5217;SDS011;26539;51.064;6.346;2023-10-13T05:27:08;16.70;;;10.17;;
5217;SDS011;26539;51.064;6.346;2023-10-13T05:29:52;28.07;;;9.57;;
5217;SDS011;26539;51.064;6.346;2023-10-13T05:32:37;22.03;;;10.23;;
5217;SDS011;26539;51.064;6.346;2023-10-13T05:35:21;21.47;;;9.57;;
5217;SDS011;26539;51.064;6.346;2023-10-13T05:38:05;14.50;;;8.80;;
5217;SDS011;26539;51.064;6.346;2023-10-13T05:40:53;18.93;;;10.20;;
5217;SDS011;26539;51.064;6.346;2023-10-13T05:43:45;25.67;;;11.20;;
5217;SDS011;26539;51.064;6.346;2023-10-13T05:46:29;26.93;;;10.70;;
5217;SDS011;26539;51.064;6.346;2023-10-13T05:49:02;16.00;;;10.60;;
5217;SDS011;26539;51.064;6.346;2023-10-13T05:51:29;20.53;;;10.27;;
5217;SDS011;26539;51.064;6.346;2023-10-13T05:53:58;17.87;;;9.93;;
5217;SDS011;26539;51.064;6.346;2023-10-13T05:59:24;19.43;;;9.77;;
5217;SDS011;26539;51.064;6.346;2023-10-13T06:02:08;23.30;;;10.80;;
5217;SDS011;26539;51.064;6.346;2023-10-13T06:04:52;23.93;;;11.47;;
5217;SDS011;26539;51.064;6.346;2023-10-13T06:07:36;22.00;;;11.20;;
5217;SDS011;26539;51.064;6.346;2023-10-13T06:10:20;10.73;;;9.30;;
5217;SDS011;26539;51.064;6.346;2023-10-13T06:13:04;27.93;;;9.90;;
5217;SDS011;26539;51.064;6.346;2023-10-13T06:15:48;30.30;;;9.90;;
5217;SDS011;26539;51.064;6.346;2023-10-13T06:18:33;26.53;;;11.63;;
5217;SDS011;26539;51.064;6.346;2023-10-13T06:21:17;22.40;;;10.53;;
5217;SDS011;26539;51.064;6.346;2023-10-13T06:24:01;19.53;;;10.13;;
5217;SDS011;26539;51.064;6.346;2023-10-13T06:26:47;20.00;;;9.53;;
5217;SDS011;26539;51.064;6.346;2023-10-13T06:29:31;20.13;;;10.40;;
5217;SDS011;26539;51.064;6.346;2023-10-13T06:31:58;17.20;;;8.83;;
5217;SDS011;26539;51.064;6.346;2023-10-13T06:34:26;20.67;;;9.50;;
5217;SDS011;26539;51.064;6.346;2023-10-13T06:37:03;19.77;;;10.70;;
5217;SDS011;26539;51.064;6.346;2023-10-13T06:39:47;19.93;;;10.53;;
5217;SDS011;26539;51.064;6.346;2023-10-13T06:42:16;18.33;;;10.93;;
5217;SDS011;26539;51.064;6.346;2023-10-13T06:44:44;15.60;;;9.37;;
5217;SDS011;26539;51.064;6.346;2023-10-13T06:47:12;23.53;;;10.50;;
5217;SDS011;26539;51.064;6.346;2023-10-13T06:49:41;21.30;;;10.10;;
5217;SDS011;26539;51.064;6.346;2023-10-13T06:52:08;23.27;;;10.60;;
5217;SDS011;26539;51.064;6.346;2023-10-13T06:54:35;17.07;;;9.33;;
5217;SDS011;26539;51.064;6.346;2023-10-13T06:57:04;19.80;;;9.50;;
5217;SDS011;26539;51.064;6.346;2023-10-13T06:59:32;22.73;;;9.00;;
5217;SDS011;26539;51.064;6.346;2023-10-13T07:02:00;20.27;;;9.40;;
5217;SDS011;26539;51.064;6.346;2023-10-13T07:04:34;17.40;;;8.30;;
5217;SDS011;26539;51.064;6.346;2023-10-13T07:07:04;13.60;;;9.20;;
5217;SDS011;26539;51.064;6.346;2023-10-13T07:09:35;18.53;;;9.70;;
5217;SDS011;26539;51.064;6.346;2023-10-13T07:12:01;26.07;;;9.77;;
5217;SDS011;26539;51.064;6.346;2023-10-13T07:14:48;24.70;;;9.70;;
5217;SDS011;26539;51.064;6.346;2023-10-13T07:17:17;19.63;;;8.43;;
5217;SDS011;26539;51.064;6.346;2023-10-13T07:19:52;17.77;;;8.43;;
5217;SDS011;26539;51.064;6.346;2023-10-13T07:22:19;20.37;;;9.33;;
5217;SDS011;26539;51.064;6.346;2023-10-13T07:24:45;14.33;;;9.03;;
5217;SDS011;26539;51.064;6.346;2023-10-13T07:27:23;15.67;;;8.57;;
5217;SDS011;26539;51.064;6.346;2023-10-13T07:30:00;20.17;;;7.73;;
5217;SDS011;26539;51.064;6.346;2023-10-13T07:32:41;15.27;;;8.23;;
5217;SDS011;26539;51.064;6.346;2023-10-13T07:35:17;16.07;;;7.97;;
5217;SDS011;26539;51.064;6.346;2023-10-13T07:37:45;14.50;;;7.30;;
5217;SDS011;26539;51.064;6.346;2023-10-13T07:40:13;17.00;;;6.90;;
5217;SDS011;26539;51.064;6.346;2023-10-13T07:42:54;26.47;;;7.33;;
5217;SDS011;26539;51.064;6.346;2023-10-13T07:45:35;20.50;;;7.30;;
5217;SDS011;26539;51.064;6.346;2023-10-13T07:48:06;15.13;;;7.03;;
5217;SDS011;26539;51.064;6.346;2023-10-13T07:50:57;17.33;;;6.73;;
5217;SDS011;26539;51.064;6.346;2023-10-13T07:53:28;17.27;;;6.00;;
5217;SDS011;26539;51.064;6.346;2023-10-13T07:55:59;15.53;;;5.63;;
5217;SDS011;26539;51.064;6.346;2023-10-13T07:58:29;16.47;;;5.90;;
5217;SDS011;26539;51.064;6.346;2023-10-13T08:00:56;16.77;;;6.77;;
5217;SDS011;26539;51.064;6.346;2023-10-13T08:03:32;16.50;;;6.27;;
5217;SDS011;26539;51.064;6.346;2023-10-13T08:06:10;7.63;;;4.63;;
5217;SDS011;26539;51.064;6.346;2023-10-13T08:08:46;20.30;;;5.97;;
5217;SDS011;26539;51.064;6.346;2023-10-13T08:11:15;12.63;;;5.10;;
5217;SDS011;26539;51.064;6.346;2023-10-13T08:13:47;19.50;;;4.40;;
5217;SDS011;26539;51.064;6.346;2023-10-13T08:16:23;12.33;;;4.00;;
5217;SDS011;26539;51.064;6.346;2023-10-13T08:18:55;14.20;;;4.77;;
5217;SDS011;26539;51.064;6.346;2023-10-13T08:21:21;9.83;;;4.30;;
5217;SDS011;26539;51.064;6.346;2023-10-13T08:23:49;12.90;;;5.37;;
5217;SDS011;26539;51.064;6.346;2023-10-13T08:26:18;9.83;;;4.83;;
5217;SDS011;26539;51.064;6.346;2023-10-13T08:28:54;12.77;;;4.47;;
5217;SDS011;26539;51.064;6.346;2023-10-13T08:31:21;12.77;;;5.20;;
5217;SDS011;26539;51.064;6.346;2023-10-13T08:33:48;6.57;;;4.43;;
5217;SDS011;26539;51.064;6.346;2023-10-13T08:36:14;10.43;;;4.23;;
5217;SDS011;26539;51.064;6.346;2023-10-13T08:38:56;8.53;;;4.23;;
5217;SDS011;26539;51.064;6.346;2023-10-13T08:41:22;10.47;;;4.80;;
5217;SDS011;26539;51.064;6.346;2023-10-13T08:43:48;8.60;;;4.97;;
5217;SDS011;26539;51.064;6.346;2023-10-13T08:46:18;11.00;;;4.63;;
5217;SDS011;26539;51.064;6.346;2023-10-13T08:48:55;12.07;;;4.97;;
5217;SDS011;26539;51.064;6.346;2023-10-13T08:51:40;8.63;;;5.33;;
5217;SDS011;26539;51.064;6.346;2023-10-13T08:54:11;11.17;;;4.17;;
5217;SDS011;26539;51.064;6.346;2023-10-13T08:56:44;13.70;;;5.10;;
5217;SDS011;26539;51.064;6.346;2023-10-13T08:59:22;13.73;;;5.00;;
5217;SDS011;26539;51.064;6.346;2023-10-13T09:01:58;10.03;;;4.27;;
5217;SDS011;26539;51.064;6.346;2023-10-13T09:04:41;14.03;;;5.10;;
5217;SDS011;26539;51.064;6.346;2023-10-13T09:07:09;10.10;;;5.30;;
5217;SDS011;26539;51.064;6.346;2023-10-13T09:12:24;11.10;;;4.70;;
5217;SDS011;26539;51.064;6.346;2023-10-13T09:14:58;12.10;;;5.60;;
5217;SDS011;26539;51.064;6.346;2023-10-13T09:17:31;11.90;;;4.93;;
5217;SDS011;26539;51.064;6.346;2023-10-13T09:20:06;10.90;;;5.47;;
5217;SDS011;26539;51.064;6.346;2023-10-13T09:22:50;13.70;;;5.60;;
5217;SDS011;26539;51.064;6.346;2023-10-13T09:28:04;14.83;;;5.60;;
5217;SDS011;26539;51.064;6.346;2023-10-13T09:30:46;13.60;;;5.83;;
5217;SDS011;26539;51.064;6.346;2023-10-13T09:33:12;11.80;;;6.00;;
5217;SDS011;26539;51.064;6.346;2023-10-13T09:35:43;10.60;;;5.70;;
5217;SDS011;26539;51.064;6.346;2023-10-13T09:38:14;7.80;;;4.90;;
5217;SDS011;26539;51.064;6.346;2023-10-13T09:40:43;8.57;;;5.53;;
5217;SDS011;26539;51.064;6.346;2023-10-13T09:43:16;12.10;;;5.63;;
5217;SDS011;26539;51.064;6.346;2023-10-13T09:45:46;12.83;;;5.90;;
5217;SDS011;26539;51.064;6.346;2023-10-13T09:48:40;11.13;;;6.87;;
5217;SDS011;26539;51.064;6.346;2023-10-13T09:51:12;8.67;;;6.30;;
5217;SDS011;26539;51.064;6.346;2023-10-13T09:53:39;15.03;;;6.70;;
5217;SDS011;26539;51.064;6.346;2023-10-13T09:56:32;12.07;;;6.60;;
5217;SDS011;26539;51.064;6.346;2023-10-13T09:59:11;11.07;;;6.03;;
5217;SDS011;26539;51.064;6.346;2023-10-13T10:01:43;8.70;;;6.90;;
5217;SDS011;26539;51.064;6.346;2023-10-13T10:04:16;9.77;;;7.17;;
5217;SDS011;26539;51.064;6.346;2023-10-13T10:06:54;14.80;;;6.33;;
5217;SDS011;26539;51.064;6.346;2023-10-13T10:09:31;13.07;;;6.97;;
5217;SDS011;26539;51.064;6.346;2023-10-13T10:17:42;6.73;;;5.90;;
5217;SDS011;26539;51.064;6.346;2023-10-13T10:20:08;10.73;;;5.70;;
5217;SDS011;26539;51.064;6.346;2023-10-13T10:22:54;10.87;;;7.30;;
5217;SDS011;26539;51.064;6.346;2023-10-13T10:25:28;12.80;;;6.53;;
5217;SDS011;26539;51.064;6.346;2023-10-13T10:28:07;12.17;;;6.53;;
5217;SDS011;26539;51.064;6.346;2023-10-13T10:30:33;12.30;;;6.60;;
5217;SDS011;26539;51.064;6.346;2023-10-13T10:33:03;12.70;;;7.13;;
5217;SDS011;26539;51.064;6.346;2023-10-13T10:35:37;10.43;;;6.97;;
5217;SDS011;26539;51.064;6.346;2023-10-13T10:38:10;11.90;;;6.30;;
5217;SDS011;26539;51.064;6.346;2023-10-13T10:40:47;8.33;;;6.37;;
5217;SDS011;26539;51.064;6.346;2023-10-13T10:43:43;10.73;;;6.13;;
5217;SDS011;26539;51.064;6.346;2023-10-13T10:46:09;11.60;;;5.60;;
5217;SDS011;26539;51.064;6.346;2023-10-13T10:48:37;12.30;;;5.90;;
5217;SDS011;26539;51.064;6.346;2023-10-13T10:51:12;9.67;;;6.80;;
5217;SDS011;26539;51.064;6.346;2023-10-13T10:53:41;12.50;;;6.37;;
5217;SDS011;26539;51.064;6.346;2023-10-13T10:56:13;13.37;;;6.47;;
5217;SDS011;26539;51.064;6.346;2023-10-13T10:58:49;27.70;;;8.40;;
5217;SDS011;26539;51.064;6.346;2023-10-13T11:01:24;17.27;;;6.60;;
5217;SDS011;26539;51.064;6.346;2023-10-13T11:03:59;22.13;;;7.63;;
5217;SDS011;26539;51.064;6.346;2023-10-13T11:06:52;14.80;;;6.20;;
5217;SDS011;26539;51.064;6.346;2023-10-13T11:09:32;13.07;;;7.37;;
5217;SDS011;26539;51.064;6.346;2023-10-13T11:15:05;9.73;;;5.50;;
5217;SDS011;26539;51.064;6.346;2023-10-13T11:17:50;9.20;;;6.40;;
5217;SDS011;26539;51.064;6.346;2023-10-13T11:20:19;16.30;;;6.80;;
5217;SDS011;26539;51.064;6.346;2023-10-13T11:22:51;11.77;;;6.00;;
5217;SDS011;26539;51.064;6.346;2023-10-13T11:25:29;10.93;;;5.63;;
5217;SDS011;26539;51.064;6.346;2023-10-13T11:28:08;17.93;;;5.77;;
5217;SDS011;26539;51.064;6.346;2023-10-13T11:30:42;15.10;;;6.03;;
5217;SDS011;26539;51.064;6.346;2023-10-13T11:33:14;11.87;;;6.23;;
5217;SDS011;26539;51.064;6.346;2023-10-13T11:35:44;17.67;;;7.03;;
5217;SDS011;26539;51.064;6.346;2023-10-13T11:38:19;11.67;;;5.77;;
5217;SDS011;26539;51.064;6.346;2023-10-13T11:43:32;17.60;;;6.40;;
5217;SDS011;26539;51.064;6.346;2023-10-13T11:46:19;19.00;;;7.30;;
5217;SDS011;26539;51.064;6.346;2023-10-13T11:49:01;10.67;;;5.77;;
5217;SDS011;26539;51.064;6.346;2023-10-13T11:51:46;15.70;;;6.50;;
5217;SDS011;26539;51.064;6.346;2023-10-13T11:54:13;21.90;;;5.87;;
5217;SDS011;26539;51.064;6.346;2023-10-13T11:56:48;14.03;;;5.17;;
5217;SDS011;26539;51.064;6.346;2023-10-13T11:59:15;14.77;;;6.00;;
5217;SDS011;26539;51.064;6.346;2023-10-13T12:01:46;15.70;;;5.90;;
5217;SDS011;26539;51.064;6.346;2023-10-13T12:04:31;15.00;;;6.17;;
5217;SDS011;26539;51.064;6.346;2023-10-13T12:06:58;15.03;;;5.97;;
5217;SDS011;26539;51.064;6.346;2023-10-13T12:09:40;29.03;;;6.33;;
5217;SDS011;26539;51.064;6.346;2023-10-13T12:12:13;18.27;;;7.23;;
5217;SDS011;26539;51.064;6.346;2023-10-13T12:14:39;22.70;;;6.83;;
5217;SDS011;26539;51.064;6.346;2023-10-13T12:17:17;16.70;;;6.30;;
5217;SDS011;26539;51.064;6.346;2023-10-13T12:19:59;18.43;;;5.90;;
5217;SDS011;26539;51.064;6.346;2023-10-13T12:22:25;28.87;;;6.63;;
5217;SDS011;26539;51.064;6.346;2023-10-13T12:24:56;15.13;;;5.77;;
5217;SDS011;26539;51.064;6.346;2023-10-13T12:27:22;22.53;;;6.43;;
5217;SDS011;26539;51.064;6.346;2023-10-13T12:30:00;14.23;;;5.57;;
5217;SDS011;26539;51.064;6.346;2023-10-13T12:32:32;18.33;;;6.00;;
5217;SDS011;26539;51.064;6.346;2023-10-13T12:34:59;17.17;;;6.13;;
5217;SDS011;26539;51.064;6.346;2023-10-13T12:37:45;14.10;;;6.27;;
5217;SDS011;26539;51.064;6.346;2023-10-13T12:40:14;17.83;;;6.20;;
5217;SDS011;26539;51.064;6.346;2023-10-13T12:43:02;22.20;;;6.60;;
5217;SDS011;26539;51.064;6.346;2023-10-13T12:45:50;19.70;;;6.43;;
5217;SDS011;26539;51.064;6.346;2023-10-13T12:48:37;26.20;;;6.23;;
5217;SDS011;26539;51.064;6.346;2023-10-13T12:51:24;12.07;;;5.50;;
5217;SDS011;26539;51.064;6.346;2023-10-13T12:54:00;20.50;;;5.80;;
5217;SDS011;26539;51.064;6.346;2023-10-13T12:56:45;17.47;;;6.83;;
5217;SDS011;26539;51.064;6.346;2023-10-13T12:59:11;16.57;;;6.73;;
5217;SDS011;26539;51.064;6.346;2023-10-13T13:01:39;21.27;;;6.60;;
5217;SDS011;26539;51.064;6.346;2023-10-13T13:04:09;18.37;;;5.73;;
5217;SDS011;26539;51.064;6.346;2023-10-13T13:06:45;16.50;;;6.30;;
5217;SDS011;26539;51.064;6.346;2023-10-13T13:09:11;17.50;;;6.50;;
5217;SDS011;26539;51.064;6.346;2023-10-13T13:11:36;17.90;;;6.97;;
5217;SDS011;26539;51.064;6.346;2023-10-13T13:14:05;18.03;;;6.13;;
5217;SDS011;26539;51.064;6.346;2023-10-13T13:16:33;19.20;;;6.23;;
5217;SDS011;26539;51.064;6.346;2023-10-13T13:18:59;16.10;;;5.50;;
5217;SDS011;26539;51.064;6.346;2023-10-13T13:21:28;17.07;;;6.30;;
5217;SDS011;26539;51.064;6.346;2023-10-13T13:23:54;19.00;;;6.53;;
5217;SDS011;26539;51.064;6.346;2023-10-13T13:26:23;15.30;;;5.60;;
5217;SDS011;26539;51.064;6.346;2023-10-13T13:28:49;15.20;;;5.60;;
5217;SDS011;26539;51.064;6.346;2023-10-13T13:31:24;17.40;;;5.60;;
5217;SDS011;26539;51.064;6.346;2023-10-13T13:33:51;13.97;;;6.43;;
5217;SDS011;26539;51.064;6.346;2023-10-13T13:36:17;17.20;;;6.20;;
5217;SDS011;26539;51.064;6.346;2023-10-13T13:38:44;19.40;;;6.50;;
5217;SDS011;26539;51.064;6.346;2023-10-13T13:41:14;18.83;;;6.90;;
5217;SDS011;26539;51.064;6.346;2023-10-13T13:43:42;19.47;;;7.00;;
5217;SDS011;26539;51.064;6.346;2023-10-13T13:46:15;19.43;;;6.33;;
5217;SDS011;26539;51.064;6.346;2023-10-13T13:48:50;13.20;;;6.00;;
5217;SDS011;26539;51.064;6.346;2023-10-13T13:51:16;21.47;;;6.00;;
5217;SDS011;26539;51.064;6.346;2023-10-13T13:53:51;15.77;;;5.50;;
5217;SDS011;26539;51.064;6.346;2023-10-13T13:56:17;11.33;;;6.60;;
5217;SDS011;26539;51.064;6.346;2023-10-13T13:58:50;17.03;;;5.50;;
5217;SDS011;26539;51.064;6.346;2023-10-13T14:01:16;16.90;;;6.13;;
5217;SDS011;26539;51.064;6.346;2023-10-13T14:03:46;22.60;;;6.90;;
5217;SDS011;26539;51.064;6.346;2023-10-13T14:06:15;19.97;;;5.87;;
5217;SDS011;26539;51.064;6.346;2023-10-13T14:08:46;18.53;;;6.20;;
5217;SDS011;26539;51.064;6.346;2023-10-13T14:11:19;29.70;;;6.80;;
5217;SDS011;26539;51.064;6.346;2023-10-13T14:14:12;18.50;;;6.47;;
5217;SDS011;26539;51.064;6.346;2023-10-13T14:19:09;21.80;;;5.90;;
5217;SDS011;26539;51.064;6.346;2023-10-13T14:21:36;13.47;;;6.73;;
5217;SDS011;26539;51.064;6.346;2023-10-13T14:24:01;15.33;;;7.03;;
5217;SDS011;26539;51.064;6.346;2023-10-13T14:26:28;15.77;;;6.37;;
5217;SDS011;26539;51.064;6.346;2023-10-13T14:28:54;13.00;;;5.27;;
5217;SDS011;26539;51.064;6.346;2023-10-13T14:31:27;17.50;;;5.80;;
5217;SDS011;26539;51.064;6.346;2023-10-13T14:33:53;19.13;;;6.33;;
5217;SDS011;26539;51.064;6.346;2023-10-13T14:36:18;12.77;;;5.67;;
5217;SDS011;26539;51.064;6.346;2023-10-13T14:38:47;19.67;;;5.90;;
5217;SDS011;26539;51.064;6.346;2023-10-13T14:41:16;11.17;;;5.57;;
5217;SDS011;26539;51.064;6.346;2023-10-13T14:43:42;12.27;;;5.43;;
5217;SDS011;26539;51.064;6.346;2023-10-13T14:46:17;16.27;;;5.67;;
5217;SDS011;26539;51.064;6.346;2023-10-13T14:48:53;10.40;;;4.90;;
5217;SDS011;26539;51.064;6.346;2023-10-13T14:51:20;15.43;;;5.63;;
5217;SDS011;26539;51.064;6.346;2023-10-13T14:53:46;15.87;;;5.73;;
5217;SDS011;26539;51.064;6.346;2023-10-13T14:56:16;14.83;;;5.37;;
5217;SDS011;26539;51.064;6.346;2023-10-13T14:58:42;15.53;;;5.70;;
5217;SDS011;26539;51.064;6.346;2023-10-13T15:01:15;14.67;;;5.90;;
5217;SDS011;26539;51.064;6.346;2023-10-13T15:03:49;13.90;;;5.67;;
5217;SDS011;26539;51.064;6.346;2023-10-13T15:06:21;13.57;;;5.03;;
5217;SDS011;26539;51.064;6.346;2023-10-13T15:08:50;18.90;;;5.80;;
5217;SDS011;26539;51.064;6.346;2023-10-13T15:11:18;13.13;;;6.10;;
5217;SDS011;26539;51.064;6.346;2023-10-13T15:13:44;17.70;;;6.77;;
5217;SDS011;26539;51.064;6.346;2023-10-13T15:16:13;11.17;;;6.17;;
5217;SDS011;26539;51.064;6.346;2023-10-13T15:18:46;15.30;;;6.50;;
5217;SDS011;26539;51.064;6.346;2023-10-13T15:21:22;13.33;;;6.03;;
5217;SDS011;26539;51.064;6.346;2023-10-13T15:24:02;12.17;;;5.90;;
5217;SDS011;26539;51.064;6.346;2023-10-13T15:26:30;10.80;;;6.03;;
5217;SDS011;26539;51.064;6.346;2023-10-13T15:28:57;16.67;;;5.77;;
5217;SDS011;26539;51.064;6.346;2023-10-13T15:31:22;16.93;;;6.00;;
5217;SDS011;26539;51.064;6.346;2023-10-13T15:34:02;15.67;;;6.80;;
5217;SDS011;26539;51.064;6.346;2023-10-13T15:36:32;13.10;;;6.20;;
5217;SDS011;26539;51.064;6.346;2023-10-13T15:38:58;9.53;;;5.60;;
5217;SDS011;26539;51.064;6.346;2023-10-13T15:41:24;11.10;;;6.60;;
5217;SDS011;26539;51.064;6.346;2023-10-13T15:43:51;16.47;;;5.70;;